createdAt,value
2018-04-11T00:00:40.557Z,4.67
2018-04-11T00:03:11.552Z,5.27
2018-04-11T00:05:49.492Z,4.93
2018-04-11T00:08:20.526Z,4.87
2018-04-11T00:10:51.530Z,5.07
2018-04-11T00:13:22.529Z,5.30
2018-04-11T00:15:53.488Z,5.47
2018-04-11T00:18:24.451Z,6.13
2018-04-11T00:20:55.435Z,5.57
2018-04-11T00:23:26.465Z,5.47
2018-04-11T00:25:57.437Z,5.87
2018-04-11T00:28:28.443Z,5.73
2018-04-11T00:30:59.411Z,5.47
2018-04-11T00:33:30.424Z,5.30
2018-04-11T00:36:01.385Z,5.67
2018-04-11T00:38:32.363Z,5.43
2018-04-11T00:41:03.334Z,5.67
2018-04-11T00:43:34.342Z,6.30
2018-04-11T00:46:05.346Z,5.27
2018-04-11T00:48:36.357Z,6.50
2018-04-11T00:51:07.360Z,5.50
2018-04-11T00:53:38.386Z,6.33
2018-04-11T00:56:09.406Z,6.70
2018-04-11T00:58:40.381Z,5.87
2018-04-11T01:01:11.378Z,6.73
2018-04-11T01:03:42.396Z,7.17
2018-04-11T01:06:13.496Z,7.77
2018-04-11T01:08:44.504Z,7.20
2018-04-11T01:11:15.517Z,8.40
2018-04-11T01:13:46.526Z,8.67
2018-04-11T01:16:17.562Z,8.00
2018-04-11T01:18:48.558Z,8.63
2018-04-11T01:21:19.550Z,9.00
2018-04-11T01:23:50.558Z,8.77
2018-04-11T01:26:21.571Z,9.60
2018-04-11T01:28:52.575Z,8.60
2018-04-11T01:31:23.557Z,9.63
2018-04-11T01:33:54.544Z,9.43
2018-04-11T01:36:25.535Z,9.37
2018-04-11T01:38:56.518Z,9.40
2018-04-11T01:41:27.532Z,9.33
2018-04-11T01:43:58.507Z,10.00
2018-04-11T01:46:29.509Z,9.83
2018-04-11T01:49:00.482Z,9.83
2018-04-11T01:51:31.516Z,10.10
2018-04-11T01:54:02.487Z,11.07
2018-04-11T01:56:33.504Z,10.73
2018-04-11T01:59:04.498Z,11.23
2018-04-11T02:01:35.522Z,11.10
2018-04-11T02:04:06.527Z,11.30
2018-04-11T02:06:37.528Z,10.90
2018-04-11T02:09:08.562Z,11.10
2018-04-11T02:11:39.577Z,10.40
2018-04-11T02:14:10.618Z,10.80
2018-04-11T02:16:41.621Z,11.03
2018-04-11T02:19:12.636Z,12.07
2018-04-11T02:21:43.638Z,12.07
2018-04-11T02:24:14.648Z,11.00
2018-04-11T02:26:45.650Z,11.97
2018-04-11T02:29:16.687Z,11.73
2018-04-11T02:31:47.699Z,11.90
2018-04-11T02:34:18.712Z,13.10
2018-04-11T02:36:49.715Z,12.53
2018-04-11T02:39:20.718Z,13.10
2018-04-11T02:41:51.663Z,14.10
2018-04-11T02:44:22.664Z,14.63
2018-04-11T02:46:53.712Z,13.87
2018-04-11T02:49:24.683Z,15.20
2018-04-11T02:51:55.693Z,15.13
2018-04-11T02:54:26.691Z,16.43
2018-04-11T02:56:57.693Z,15.67
2018-04-11T02:59:28.708Z,16.73
2018-04-11T03:01:59.744Z,16.10
2018-04-11T03:04:30.721Z,16.10
2018-04-11T03:07:01.759Z,15.20
2018-04-11T03:09:32.764Z,16.43
2018-04-11T03:12:03.804Z,16.30
2018-04-11T03:14:34.883Z,17.60
2018-04-11T03:17:05.928Z,18.17
2018-04-11T03:19:36.981Z,18.60
2018-04-11T03:22:07.972Z,18.13
2018-04-11T03:24:38.980Z,19.50
2018-04-11T03:27:09.986Z,19.47
2018-04-11T03:29:41.018Z,18.17
2018-04-11T03:32:12.063Z,20.17
2018-04-11T03:34:43.083Z,19.97
2018-04-11T03:37:14.114Z,20.60
2018-04-11T03:39:45.160Z,19.90
2018-04-11T03:42:16.168Z,19.73
2018-04-11T03:44:47.144Z,18.00
2018-04-11T03:47:18.139Z,19.43
2018-04-11T03:49:49.112Z,20.67
2018-04-11T03:52:20.088Z,20.43
2018-04-11T03:54:51.090Z,19.70
2018-04-11T03:57:22.072Z,19.77
2018-04-11T03:59:53.102Z,20.20
2018-04-11T04:02:24.107Z,21.67
2018-04-11T04:04:55.123Z,22.27
2018-04-11T04:07:26.099Z,22.10
2018-04-11T04:09:57.174Z,21.03
2018-04-11T04:12:28.191Z,20.73
2018-04-11T04:15:11.345Z,23.83
2018-04-11T04:17:54.521Z,22.57
2018-04-11T04:20:35.972Z,22.37
2018-04-11T04:23:06.997Z,23.30
2018-04-11T04:25:38.032Z,23.73
2018-04-11T04:28:09.076Z,23.83
2018-04-11T04:30:40.062Z,22.27
2018-04-11T04:33:11.172Z,24.33
2018-04-11T04:35:42.152Z,22.80
2018-04-11T04:38:13.156Z,23.20
2018-04-11T04:40:44.133Z,24.10
2018-04-11T04:43:15.155Z,23.77
2018-04-11T04:45:46.188Z,24.47
2018-04-11T04:48:17.232Z,26.13
2018-04-11T04:50:48.240Z,24.03
2018-04-11T04:53:19.242Z,26.57
2018-04-11T04:55:50.257Z,25.90
2018-04-11T04:58:21.251Z,27.97
2018-04-11T05:00:52.195Z,27.13
2018-04-11T05:03:23.155Z,28.03
2018-04-11T05:05:54.186Z,26.80
2018-04-11T05:08:25.197Z,27.07
2018-04-11T05:10:56.219Z,28.60
2018-04-11T05:13:27.202Z,28.07
2018-04-11T05:15:58.223Z,29.53
2018-04-11T05:18:29.214Z,29.50
2018-04-11T05:21:00.268Z,28.37
2018-04-11T05:23:31.314Z,28.83
2018-04-11T05:26:02.351Z,28.53
2018-04-11T05:28:33.391Z,27.03
2018-04-11T05:31:04.389Z,28.17
2018-04-11T05:33:35.379Z,28.33
2018-04-11T05:36:06.403Z,28.97
2018-04-11T05:38:37.406Z,28.77
2018-04-11T05:41:08.422Z,27.57
2018-04-11T05:43:39.466Z,28.03
2018-04-11T05:46:10.472Z,28.03
2018-04-11T05:48:41.529Z,24.47
2018-04-11T05:51:12.591Z,25.43
2018-04-11T05:53:43.555Z,25.37
2018-04-11T05:56:14.603Z,28.37
2018-04-11T05:58:45.653Z,27.07
2018-04-11T06:01:16.619Z,26.80
2018-04-11T06:03:47.685Z,26.87
2018-04-11T06:06:18.676Z,24.50
2018-04-11T06:08:49.700Z,22.07
2018-04-11T06:11:20.704Z,21.10
2018-04-11T06:13:51.730Z,23.63
2018-04-11T06:16:22.732Z,22.20
2018-04-11T06:18:53.709Z,20.27
2018-04-11T06:21:24.726Z,18.73
2018-04-11T06:23:55.675Z,19.83
2018-04-11T06:26:26.646Z,19.87
2018-04-11T06:28:57.621Z,20.73
2018-04-11T06:31:28.627Z,18.17
2018-04-11T06:33:59.590Z,18.07
2018-04-11T06:36:30.603Z,18.33
2018-04-11T06:39:01.622Z,17.20
2018-04-11T06:41:32.563Z,17.67
2018-04-11T06:44:03.545Z,16.67
2018-04-11T06:46:34.565Z,16.67
2018-04-11T06:49:05.603Z,17.23
2018-04-11T06:51:36.644Z,16.50
2018-04-11T06:54:07.687Z,15.57
2018-04-11T06:56:38.726Z,14.77
2018-04-11T06:59:09.728Z,15.57
2018-04-11T07:01:40.738Z,17.10
2018-04-11T07:04:11.697Z,17.13
2018-04-11T07:06:42.709Z,19.97
2018-04-11T07:09:13.688Z,17.10
2018-04-11T07:11:44.699Z,17.40
2018-04-11T07:14:15.672Z,15.43
2018-04-11T07:16:46.728Z,14.27
2018-04-11T07:19:17.715Z,13.63
2018-04-11T07:21:48.737Z,13.50
2018-04-11T07:24:19.735Z,13.37
2018-04-11T07:26:50.700Z,12.40
2018-04-11T07:29:21.706Z,12.90
2018-04-11T07:31:52.693Z,10.53
2018-04-11T07:34:23.720Z,8.47
2018-04-11T07:36:54.692Z,6.60
2018-04-11T07:39:25.729Z,6.83
2018-04-11T07:41:56.712Z,5.83
2018-04-11T07:44:27.689Z,6.30
2018-04-11T07:46:58.699Z,5.90
2018-04-11T07:49:29.726Z,5.57
2018-04-11T07:52:00.701Z,9.80
2018-04-11T07:54:31.741Z,5.00
2018-04-11T07:57:02.696Z,5.03
2018-04-11T07:59:33.778Z,4.93
2018-04-11T08:02:04.882Z,5.47
2018-04-11T08:04:35.932Z,4.90
2018-04-11T08:07:06.983Z,5.07
2018-04-11T08:09:37.998Z,4.93
2018-04-11T08:12:08.993Z,6.47
2018-04-11T08:14:40.072Z,5.90
2018-04-11T08:17:11.111Z,5.85
2018-04-11T08:19:42.218Z,5.37
2018-04-11T08:22:13.262Z,6.03
2018-04-11T08:24:44.314Z,5.62
2018-04-11T08:27:15.309Z,5.78
2018-04-11T08:29:46.340Z,6.80
2018-04-11T08:32:17.353Z,4.95
2018-04-11T08:34:48.357Z,5.12
2018-04-11T08:37:19.364Z,5.28
2018-04-11T08:39:50.348Z,4.87
2018-04-11T08:42:21.346Z,4.90
2018-04-11T08:44:52.321Z,4.18
2018-04-11T08:47:23.368Z,5.32
2018-04-11T08:49:54.335Z,4.72
2018-04-11T08:52:25.298Z,4.45
2018-04-11T08:54:56.314Z,4.55
2018-04-11T08:57:27.298Z,4.30
2018-04-11T08:59:58.317Z,4.55
2018-04-11T09:02:29.364Z,4.87
2018-04-11T09:05:00.339Z,4.60
2018-04-11T09:07:31.383Z,4.12
2018-04-11T09:10:02.389Z,4.20
2018-04-11T09:12:33.404Z,3.95
2018-04-11T09:15:04.427Z,4.82
2018-04-11T09:17:35.445Z,4.22
2018-04-11T09:20:06.443Z,4.43
2018-04-11T09:22:37.460Z,4.75
2018-04-11T09:25:08.432Z,5.45
2018-04-11T09:27:39.440Z,5.35
2018-04-11T09:30:10.422Z,4.97
2018-04-11T09:32:41.449Z,8.13
2018-04-11T09:35:12.460Z,5.40
2018-04-11T09:37:43.495Z,4.87
2018-04-11T09:40:14.536Z,4.50
2018-04-11T09:42:45.574Z,4.80
2018-04-11T09:45:16.615Z,6.05
2018-04-11T09:47:47.651Z,5.18
2018-04-11T09:50:18.666Z,5.37
2018-04-11T09:52:49.651Z,4.22
2018-04-11T09:55:20.682Z,4.97
2018-04-11T09:57:51.718Z,5.18
2018-04-11T10:00:22.807Z,8.20
2018-04-11T10:02:59.759Z,5.45
2018-04-11T10:05:38.182Z,4.47
2018-04-11T10:08:09.229Z,4.47
2018-04-11T10:10:40.248Z,5.97
2018-04-11T10:13:11.243Z,5.18
2018-04-11T10:15:42.264Z,4.12
2018-04-11T10:18:13.332Z,4.50
2018-04-11T10:20:44.358Z,4.47
2018-04-11T10:23:15.376Z,4.25
2018-04-11T10:25:46.407Z,3.92
2018-04-11T10:28:17.436Z,3.87
2018-04-11T10:30:48.423Z,4.53
2018-04-11T10:33:19.467Z,4.03
2018-04-11T10:35:50.470Z,4.12
2018-04-11T10:38:21.532Z,4.37
2018-04-11T10:40:52.535Z,3.90
2018-04-11T10:43:23.525Z,3.75
2018-04-11T10:45:54.535Z,3.87
2018-04-11T10:48:25.590Z,4.97
2018-04-11T10:50:56.590Z,3.95
2018-04-11T10:53:27.625Z,3.87
2018-04-11T10:55:58.610Z,4.62
2018-04-11T10:58:29.570Z,4.90
2018-04-11T11:01:00.593Z,4.30
2018-04-11T11:03:31.605Z,4.00
2018-04-11T11:06:02.652Z,4.10
2018-04-11T11:08:33.713Z,3.90
2018-04-11T11:11:04.755Z,4.40
2018-04-11T11:13:35.748Z,4.07
2018-04-11T11:16:06.752Z,4.73
2018-04-11T11:18:37.766Z,4.17
2018-04-11T11:21:08.729Z,4.20
2018-04-11T11:23:39.730Z,4.23
2018-04-11T11:26:10.757Z,5.67
2018-04-11T11:28:41.820Z,4.13
2018-04-11T11:31:12.794Z,4.20
2018-04-11T11:33:50.859Z,4.60
2018-04-11T11:36:21.905Z,4.70
2018-04-11T11:38:52.980Z,4.67
2018-04-11T11:41:24.078Z,6.13
2018-04-11T11:43:55.090Z,5.53
2018-04-11T11:46:26.101Z,4.27
2018-04-11T11:48:57.086Z,4.80
2018-04-11T11:51:28.075Z,5.73
2018-04-11T11:53:59.091Z,4.80
2018-04-11T11:56:30.087Z,5.40
2018-04-11T11:59:01.103Z,6.47
2018-04-11T12:01:32.089Z,5.40
2018-04-11T12:04:03.118Z,5.77
2018-04-11T12:06:34.080Z,5.67
2018-04-11T12:09:05.094Z,5.97
2018-04-11T12:11:36.098Z,6.43
2018-04-11T12:14:07.076Z,7.20
2018-04-11T12:16:38.094Z,6.13
2018-04-11T12:19:09.124Z,5.50
2018-04-11T12:21:40.118Z,7.33
2018-04-11T12:24:11.112Z,12.20
2018-04-11T12:26:42.097Z,8.00
2018-04-11T12:29:13.111Z,7.30
2018-04-11T12:31:44.084Z,7.47
2018-04-11T12:34:15.119Z,8.00
2018-04-11T12:36:46.158Z,6.87
2018-04-11T12:39:17.186Z,6.40
2018-04-11T12:41:48.190Z,4.20
2018-04-11T12:44:19.166Z,5.03
2018-04-11T12:46:50.171Z,4.30
2018-04-11T12:49:21.163Z,4.00
2018-04-11T12:51:52.185Z,4.43
2018-04-11T12:54:23.178Z,3.63
2018-04-11T12:56:54.219Z,3.70
2018-04-11T12:59:25.256Z,4.67
2018-04-11T13:01:56.263Z,3.87
2018-04-11T13:04:27.226Z,3.53
2018-04-11T13:06:58.240Z,3.17
2018-04-11T13:09:29.279Z,3.83
2018-04-11T13:12:00.286Z,3.97
2018-04-11T13:14:31.328Z,2.83
2018-04-11T13:17:02.298Z,3.50
2018-04-11T13:19:33.262Z,2.80
2018-04-11T13:22:04.286Z,3.37
2018-04-11T13:24:35.253Z,3.57
2018-04-11T13:27:06.254Z,3.23
2018-04-11T13:29:37.238Z,4.37
2018-04-11T13:32:08.253Z,3.57
2018-04-11T13:34:39.257Z,5.47
2018-04-11T13:37:10.342Z,4.40
2018-04-11T13:39:41.306Z,3.67
2018-04-11T13:42:12.278Z,3.50
2018-04-11T13:44:43.283Z,5.43
2018-04-11T13:47:14.279Z,2.97
2018-04-11T13:49:45.292Z,3.27
2018-04-11T13:52:16.261Z,3.27
2018-04-11T13:54:47.279Z,3.90
2018-04-11T13:57:18.278Z,3.93
2018-04-11T13:59:49.254Z,3.37
2018-04-11T14:02:20.265Z,3.17
2018-04-11T14:04:51.262Z,3.40
2018-04-11T14:07:22.273Z,2.97
2018-04-11T14:09:53.273Z,8.23
2018-04-11T14:12:24.293Z,3.83
2018-04-11T14:14:55.256Z,3.70
2018-04-11T14:17:26.324Z,3.30
2018-04-11T14:19:57.334Z,4.70
2018-04-11T14:22:28.303Z,3.30
2018-04-11T14:24:59.328Z,3.77
2018-04-11T14:27:30.321Z,4.13
2018-04-11T14:30:01.333Z,6.70
2018-04-11T14:32:32.339Z,5.27
2018-04-11T14:35:03.410Z,4.37
2018-04-11T14:37:34.413Z,3.90
2018-04-11T14:40:05.491Z,6.53
2018-04-11T14:42:36.668Z,3.30
2018-04-11T14:45:07.676Z,3.40
2018-04-11T14:47:38.683Z,3.50
2018-04-11T14:50:09.728Z,3.63
2018-04-11T14:52:40.722Z,3.27
2018-04-11T14:55:11.716Z,4.20
2018-04-11T14:57:42.742Z,2.97
2018-04-11T15:00:13.716Z,3.37
2018-04-11T15:02:44.738Z,3.50
2018-04-11T15:05:15.779Z,3.43
2018-04-11T15:07:46.763Z,4.30
2018-04-11T15:10:17.743Z,3.30
2018-04-11T15:12:48.745Z,4.50
2018-04-11T15:15:19.785Z,20.40
2018-04-11T15:17:50.877Z,5.23
2018-04-11T15:20:21.915Z,4.33
2018-04-11T15:22:52.878Z,4.07
2018-04-11T15:25:23.896Z,3.40
2018-04-11T15:27:54.844Z,4.13
2018-04-11T15:30:25.864Z,3.10
2018-04-11T15:32:56.842Z,4.00
2018-04-11T15:35:27.920Z,4.70
2018-04-11T15:37:58.905Z,3.77
2018-04-11T15:40:29.897Z,4.17
2018-04-11T15:43:00.935Z,3.77
2018-04-11T15:45:31.912Z,4.87
2018-04-11T15:48:02.889Z,3.17
2018-04-11T15:50:33.883Z,3.67
2018-04-11T15:53:04.877Z,4.30
2018-04-11T15:55:35.876Z,4.63
2018-04-11T15:58:06.845Z,4.33
2018-04-11T16:00:37.844Z,4.53
2018-04-11T16:03:08.862Z,5.03
2018-04-11T16:05:39.862Z,4.40
2018-04-11T16:08:10.898Z,5.07
2018-04-11T16:10:41.952Z,4.30
2018-04-11T16:13:13.022Z,4.67
2018-04-11T16:15:44.091Z,4.17
2018-04-11T16:18:15.062Z,4.93
2018-04-11T16:20:46.076Z,5.17
2018-04-11T16:23:17.107Z,7.00
2018-04-11T16:25:48.125Z,6.10
2018-04-11T16:28:19.150Z,6.33
2018-04-11T16:30:50.194Z,9.20
2018-04-11T16:33:21.214Z,6.00
2018-04-11T16:35:52.249Z,5.93
2018-04-11T16:38:23.245Z,5.37
2018-04-11T16:40:54.226Z,6.50
2018-04-11T16:43:25.265Z,6.73
2018-04-11T16:45:56.307Z,6.27
2018-04-11T16:48:27.972Z,6.20
2018-04-11T16:50:58.967Z,6.97
2018-04-11T16:53:29.947Z,7.97
2018-04-11T16:56:00.942Z,8.33
2018-04-11T16:58:31.950Z,10.10
2018-04-11T17:01:02.986Z,7.93
2018-04-11T17:03:34.049Z,7.67
2018-04-11T17:06:05.014Z,7.77
2018-04-11T17:08:36.020Z,7.10
2018-04-11T17:11:07.068Z,7.50
2018-04-11T17:13:38.100Z,8.20
2018-04-11T17:16:09.169Z,7.93
2018-04-11T17:18:40.184Z,7.80
2018-04-11T17:21:23.429Z,8.00
2018-04-11T17:24:06.935Z,8.27
2018-04-11T17:26:50.192Z,7.67
2018-04-11T17:29:33.673Z,8.00
2018-04-11T17:32:04.630Z,7.37
2018-04-11T17:34:35.642Z,7.53
2018-04-11T17:37:06.674Z,7.37
2018-04-11T17:39:37.646Z,7.47
2018-04-11T17:42:08.661Z,7.40
2018-04-11T17:44:39.710Z,7.53
2018-04-11T17:47:10.719Z,7.30
2018-04-11T17:49:41.733Z,8.13
2018-04-11T17:52:12.725Z,8.47
2018-04-11T17:54:43.740Z,9.33
2018-04-11T17:57:14.721Z,8.77
2018-04-11T17:59:45.762Z,9.13
2018-04-11T18:02:16.723Z,9.93
2018-04-11T18:04:47.746Z,9.57
2018-04-11T18:07:18.755Z,9.10
2018-04-11T18:09:49.728Z,9.53
2018-04-11T18:12:20.771Z,8.77
2018-04-11T18:14:51.761Z,8.67
2018-04-11T18:17:22.778Z,9.47
2018-04-11T18:19:53.816Z,10.03
2018-04-11T18:22:24.830Z,8.50
2018-04-11T18:24:55.819Z,7.43
2018-04-11T18:27:26.829Z,8.03
2018-04-11T18:29:57.856Z,7.40
2018-04-11T18:32:28.863Z,7.70
2018-04-11T18:34:59.873Z,7.47
2018-04-11T18:37:30.841Z,7.47
2018-04-11T18:40:01.818Z,8.00
2018-04-11T18:42:32.840Z,8.33
2018-04-11T18:45:03.876Z,7.50
2018-04-11T18:47:34.889Z,7.30
2018-04-11T18:50:05.881Z,6.77
2018-04-11T18:52:36.885Z,7.23
2018-04-11T18:55:07.904Z,6.80
2018-04-11T18:57:38.885Z,8.27
2018-04-11T19:00:09.874Z,6.70
2018-04-11T19:02:40.883Z,7.67
2018-04-11T19:05:11.884Z,7.17
2018-04-11T19:07:42.855Z,6.87
2018-04-11T19:10:13.859Z,8.43
2018-04-11T19:12:44.916Z,6.53
2018-04-11T19:15:15.945Z,6.67
2018-04-11T19:17:46.966Z,7.77
2018-04-11T19:20:17.990Z,8.00
2018-04-11T19:22:48.981Z,6.77
2018-04-11T19:25:20.012Z,6.70
2018-04-11T19:27:50.988Z,6.70
2018-04-11T19:30:22.036Z,6.57
2018-04-11T19:32:53.006Z,6.10
2018-04-11T19:35:23.992Z,6.97
2018-04-11T19:37:55.025Z,6.17
2018-04-11T19:40:26.046Z,7.10
2018-04-11T19:42:57.047Z,7.00
2018-04-11T19:45:28.074Z,6.87
2018-04-11T19:47:59.104Z,6.73
2018-04-11T19:50:30.118Z,8.60
2018-04-11T19:53:01.125Z,6.50
2018-04-11T19:55:32.105Z,6.37
2018-04-11T19:58:03.104Z,6.93
2018-04-11T20:00:34.122Z,6.37
2018-04-11T20:03:05.131Z,6.87
2018-04-11T20:05:36.154Z,5.57
2018-04-11T20:08:07.177Z,6.07
2018-04-11T20:10:38.171Z,6.67
2018-04-11T20:13:09.196Z,7.00
2018-04-11T20:15:40.214Z,5.90
2018-04-11T20:18:11.293Z,7.40
2018-04-11T20:20:42.316Z,7.03
2018-04-11T20:23:13.300Z,6.67
2018-04-11T20:25:44.268Z,6.63
2018-04-11T20:28:15.285Z,7.00
2018-04-11T20:30:46.323Z,7.73
2018-04-11T20:33:17.400Z,7.70
2018-04-11T20:35:48.412Z,8.50
2018-04-11T20:38:19.399Z,8.83
2018-04-11T20:40:50.411Z,9.40
2018-04-11T20:43:21.446Z,9.93
2018-04-11T20:45:52.399Z,9.80
2018-04-11T20:48:23.403Z,9.17
2018-04-11T20:50:54.343Z,10.33
2018-04-11T20:53:25.385Z,10.80
2018-04-11T20:55:56.325Z,10.37
2018-04-11T20:58:27.366Z,11.20
2018-04-11T21:00:58.326Z,9.80
2018-04-11T21:03:29.360Z,10.00
2018-04-11T21:06:00.387Z,11.83
2018-04-11T21:08:31.345Z,11.47
2018-04-11T21:11:02.318Z,11.10
2018-04-11T21:13:33.272Z,11.00
2018-04-11T21:16:04.235Z,12.13
2018-04-11T21:18:42.235Z,12.23
2018-04-11T21:21:13.205Z,10.50
2018-04-11T21:23:44.155Z,10.47
2018-04-11T21:26:15.096Z,9.73
2018-04-11T21:28:46.064Z,10.27
2018-04-11T21:31:17.005Z,10.07
2018-04-11T21:33:47.998Z,9.47
2018-04-11T21:36:18.948Z,10.57
2018-04-11T21:38:49.911Z,9.93
2018-04-11T21:41:20.865Z,10.80
2018-04-11T21:43:51.798Z,9.40
2018-04-11T21:46:22.791Z,10.17
2018-04-11T21:48:53.738Z,10.03
2018-04-11T21:51:24.715Z,10.40
2018-04-11T21:53:55.796Z,9.50
2018-04-11T21:56:26.775Z,10.27
2018-04-11T21:58:57.734Z,10.17
2018-04-11T22:01:28.674Z,10.47
2018-04-11T22:03:59.638Z,10.73
2018-04-11T22:06:30.585Z,10.57
2018-04-11T22:09:01.554Z,11.33
2018-04-11T22:11:32.543Z,10.77
2018-04-11T22:14:03.526Z,11.23
2018-04-11T22:16:34.497Z,11.80
2018-04-11T22:19:05.453Z,10.33
2018-04-11T22:21:36.409Z,11.57
2018-04-11T22:24:07.392Z,11.00
2018-04-11T22:26:38.379Z,11.10
2018-04-11T22:29:09.353Z,12.00
2018-04-11T22:31:40.307Z,10.87
2018-04-11T22:34:11.279Z,10.43
2018-04-11T22:36:42.243Z,10.43
2018-04-11T22:39:13.183Z,10.93
2018-04-11T22:41:44.156Z,11.53
2018-04-11T22:44:15.104Z,10.43
2018-04-11T22:46:46.077Z,10.50
2018-04-11T22:49:17.046Z,9.87
2018-04-11T22:51:47.988Z,9.77
2018-04-11T22:56:56.648Z,9.20
2018-04-11T22:59:27.639Z,10.13
2018-04-11T23:01:58.594Z,9.87
2018-04-11T23:04:29.587Z,10.77
2018-04-11T23:07:00.575Z,9.07
2018-04-11T23:09:31.576Z,9.47
2018-04-11T23:12:02.595Z,9.33
2018-04-11T23:14:33.546Z,9.50
2018-04-11T23:17:04.536Z,8.53
2018-04-11T23:19:35.502Z,9.27
2018-04-11T23:22:06.470Z,8.53
2018-04-11T23:24:37.417Z,10.27
2018-04-11T23:27:08.384Z,8.93
2018-04-11T23:29:39.410Z,9.63
2018-04-11T23:32:10.364Z,9.37
2018-04-11T23:34:41.341Z,9.80
2018-04-11T23:37:12.307Z,9.50
2018-04-11T23:39:43.269Z,9.53
2018-04-11T23:42:14.251Z,9.13
2018-04-11T23:44:45.217Z,8.90
2018-04-11T23:47:16.185Z,8.50
2018-04-11T23:49:47.170Z,8.27
2018-04-11T23:52:18.116Z,9.90
2018-04-11T23:54:49.074Z,8.80
2018-04-11T23:57:20.036Z,11.67
2018-04-11T23:59:51.028Z,8.33
